Time;durP1;ratioP1;P1;durP2;ratioP2;P2;SDS_P1;SDS_P2;PMS_P1;PMS_P2;Temp;Humidity;BMP_temperature;BMP_pressure;BME280_temperature;BME280_humidity;BME280_pressure;Samples;Min_cycle;Max_cycle;Signal;HPM_P1;HPM_P2
2023/11/26 00:00:12;;;;;;;9.60;3.20;;;;;;;0.58;100.00;99520.03;223286;1265;139340;-81
2023/11/26 00:06:14;;;;;;;6.90;3.20;;;;;;;0.59;100.00;99532.31;223779;1265;138795;-82
2023/11/26 00:12:15;;;;;;;11.30;3.90;;;;;;;0.58;100.00;99543.70;223938;1265;139149;-82
2023/11/26 00:18:16;;;;;;;11.00;4.50;;;;;;;0.58;100.00;99550.89;223181;1265;139939;-81
2023/11/26 00:24:17;;;;;;;10.90;4.70;;;;;;;0.60;100.00;99559.39;223817;1265;138592;-81
2023/11/26 00:30:19;;;;;;;14.90;5.10;;;;;;;0.59;100.00;99566.69;223289;1265;139616;-81
2023/11/26 00:35:57;;;;;;;;;;;;;;;;;;;;;
2023/11/26 00:41:48;;;;;;;;;;;;;;;;;;;;;
2023/11/26 00:47:49;;;;;;;17.80;7.70;;;;;;;0.47;100.00;99584.42;223247;1265;139759;-81
2023/11/26 00:53:50;;;;;;;16.50;7.10;;;;;;;0.44;100.00;99593.21;223837;1265;103136;-81
2023/11/26 00:59:51;;;;;;;9.80;4.30;;;;;;;0.38;100.00;99596.63;223453;1265;139260;-80
2023/11/26 01:05:51;;;;;;;;;;;;;;;;;;;;;
2023/11/26 01:11:53;;;;;;;9.80;4.60;;;;;;;0.33;100.00;99615.42;223851;1265;106183;-81
2023/11/26 01:17:54;;;;;;;12.20;4.80;;;;;;;0.29;100.00;99614.35;223259;1265;139866;-81
2023/11/26 01:23:54;;;;;;;;;;;;;;;;;;;;;
2023/11/26 01:29:56;;;;;;;11.30;4.50;;;;;;;0.19;100.00;99626.96;223426;1265;139416;-81
2023/11/26 01:35:58;;;;;;;9.10;3.80;;;;;;;0.15;100.00;99629.25;223803;1265;104941;-81
2023/11/26 01:41:58;;;;;;;12.10;4.40;;;;;;;0.08;100.00;99628.30;223748;1265;138239;-82
2023/11/26 01:48:02;;;;;;;12.00;5.10;;;;;;;0.06;100.00;99631.40;223292;1266;139521;-81
2023/11/26 01:53:56;;;;;;;10.10;4.00;;;;;;;0.04;100.00;99629.69;223868;1265;104661;-81
2023/11/26 01:59:51;;;;;;;10.30;4.20;;;;;;;0.03;100.00;99632.02;223304;1265;139212;-81
2023/11/26 02:05:51;;;;;;;9.10;4.00;;;;;;;-0.02;100.00;99636.42;223869;1265;138920;-81
2023/11/26 02:11:45;;;;;;;;;;;;;;;;;;;;;
2023/11/26 02:17:54;;;;;;;9.10;3.80;;;;;;;-0.17;100.00;99650.30;223197;1265;140538;-82
2023/11/26 02:23:55;;;;;;;8.80;3.70;;;;;;;-0.23;100.00;99659.05;223810;1266;138999;-82
2023/11/26 02:29:38;;;;;;;8.90;3.90;;;;;;;-0.29;100.00;99657.38;223328;1265;139457;-82
2023/11/26 02:41:41;;;;;;;9.50;3.60;;;;;;;-0.44;100.00;99670.72;223864;1265;139160;-82
2023/11/26 02:47:41;;;;;;;7.40;3.20;;;;;;;-0.49;100.00;99669.72;223196;1265;140017;-82
2023/11/26 02:53:35;;;;;;;9.50;3.30;;;;;;;-0.55;100.00;99677.14;223846;1265;139370;-81
2023/11/26 03:05:59;;;;;;;10.00;3.40;;;;;;;-0.67;100.00;99682.70;223836;1265;139238;-82
2023/11/26 03:17:42;;;;;;;7.90;3.00;;;;;;;-0.82;100.00;99691.08;223316;1265;139713;-82
2023/11/26 03:23:43;;;;;;;10.30;3.10;;;;;;;-0.90;100.00;99693.45;223824;1265;139186;-82
2023/11/26 03:29:45;;;;;;;8.80;3.40;;;;;;;-0.99;100.00;99706.05;223296;1265;139607;-82
2023/11/26 03:35:46;;;;;;;8.00;3.20;;;;;;;-1.05;100.00;99715.88;223837;1265;139822;-82
2023/11/26 03:41:47;;;;;;;12.10;3.80;;;;;;;-1.10;100.00;99720.23;223514;1265;387926;-82
2023/11/26 03:47:48;;;;;;;9.20;3.70;;;;;;;-1.15;100.00;99732.23;223327;1265;139830;-82
2023/11/26 03:53:49;;;;;;;10.10;3.60;;;;;;;-1.23;100.00;99739.42;223807;1265;139196;-82
2023/11/26 03:59:30;;;;;;;8.20;3.10;;;;;;;-1.30;100.00;99749.61;223208;1265;139684;-82
2023/11/26 04:05:15;;;;;;;8.30;3.70;;;;;;;-1.36;100.00;99749.09;223807;1265;139382;-82
2023/11/26 04:11:17;;;;;;;11.40;4.00;;;;;;;-1.43;100.00;99757.71;223308;1265;139533;-82
2023/11/26 04:16:49;;;;;;;;;;;;;;;;;;;;;
2023/11/26 04:22:44;;;;;;;;;;;;;;;;;;;;;
2023/11/26 04:28:46;;;;;;;9.40;3.50;;;;;;;-1.61;100.00;99769.92;223249;1265;139936;-83
2023/11/26 04:34:48;;;;;;;9.50;4.20;;;;;;;-1.66;100.00;99771.39;223737;1265;139091;-83
2023/11/26 04:40:40;;;;;;;;;;;;;;;;;;;;;
2023/11/26 04:46:42;;;;;;;8.30;2.80;;;;;;;-1.75;100.00;99780.02;223120;1266;140003;-83
2023/11/26 04:52:44;;;;;;;6.40;3.00;;;;;;;-1.81;100.00;99789.22;223720;1265;138588;-84
2023/11/26 04:58:36;;;;;;;;;;;;;;;;;;;;;
2023/11/26 05:04:38;;;;;;;7.80;3.30;;;;;;;-1.91;100.00;99797.56;223693;1265;138728;-83
2023/11/26 05:10:39;;;;;;;9.90;3.20;;;;;;;-1.96;100.00;99805.25;223184;1265;139993;-83
2023/11/26 05:16:39;;;;;;;6.60;3.00;;;;;;;-1.99;100.00;99810.66;223347;1265;139831;-83
2023/11/26 05:28:40;;;;;;;8.80;4.10;;;;;;;-2.06;100.00;99828.34;223274;1265;139741;-83
2023/11/26 05:40:36;;;;;;;8.40;3.50;;;;;;;-2.18;100.00;99851.04;223186;1265;139505;-84
2023/11/26 05:52:38;;;;;;;8.90;3.60;;;;;;;-2.27;100.00;99860.41;223705;1265;139191;-84
2023/11/26 05:58:37;;;;;;;;;;;;;;;;;;;;;
2023/11/26 06:04:39;;;;;;;9.30;3.90;;;;;;;-2.39;100.00;99867.80;223860;1265;139114;-84
2023/11/26 06:10:23;;;;;;;8.80;4.40;;;;;;;-2.44;100.00;99872.20;223267;1265;140679;-83
2023/11/26 06:16:24;;;;;;;11.60;5.10;;;;;;;-2.50;100.00;99874.70;223310;1265;139631;-83
2023/11/26 06:22:25;;;;;;;9.00;4.40;;;;;;;-2.56;100.00;99880.98;223780;1266;139618;-83
2023/11/26 06:28:26;;;;;;;11.20;4.40;;;;;;;-2.61;100.00;99884.07;223231;1265;139674;-83
2023/11/26 06:34:28;;;;;;;9.30;4.30;;;;;;;-2.64;100.00;99898.88;223783;1265;139519;-84
2023/11/26 06:40:22;;;;;;;;;;;;;;;;;;;;;
2023/11/26 06:46:22;;;;;;;10.10;4.90;;;;;;;-2.72;100.00;99902.42;223244;1265;139426;-83
2023/11/26 06:52:23;;;;;;;11.90;5.70;;;;;;;-2.75;100.00;99900.21;223818;1265;138939;-84
2023/11/26 06:58:24;;;;;;;10.70;5.60;;;;;;;-2.79;100.00;99898.81;223362;1265;139893;-83
2023/11/26 07:04:10;;;;;;;15.40;5.80;;;;;;;-2.79;100.00;99895.66;223728;1265;138914;-83
2023/11/26 07:10:09;;;;;;;11.80;5.40;;;;;;;-2.78;100.00;99903.45;223237;1265;142548;-83
2023/11/26 07:16:10;;;;;;;9.80;4.90;;;;;;;-2.77;100.00;99909.30;223774;1265;139440;-84
2023/11/26 07:22:13;;;;;;;11.70;5.00;;;;;;;-2.76;100.00;99914.27;223706;1265;138889;-83
2023/11/26 07:28:13;;;;;;;11.00;5.00;;;;;;;-2.74;100.00;99924.70;223218;1265;140072;-84
2023/11/26 07:34:05;;;;;;;;;;;;;;;;;;;;;
2023/11/26 07:40:07;;;;;;;13.50;6.30;;;;;;;-2.72;100.00;99928.36;223106;1265;140858;-83
2023/11/26 07:46:09;;;;;;;10.90;5.50;;;;;;;-2.67;100.00;99938.86;223799;1268;139127;-84
2023/11/26 07:52:10;;;;;;;14.80;5.50;;;;;;;-2.61;100.00;99946.05;223685;1265;139699;-81
2023/11/26 07:58:10;;;;;;;11.10;5.40;;;;;;;-2.53;100.00;99950.58;223260;1265;140071;-82
2023/11/26 08:03:55;;;;;;;;;;;;;;;;;;;;;
2023/11/26 08:09:57;;;;;;;15.10;4.90;;;;;;;-2.19;100.00;99955.69;223242;1269;140190;-81
2023/11/26 08:21:59;;;;;;;10.90;5.00;;;;;;;-1.87;100.00;99976.16;223773;1266;138922;-80
2023/11/26 08:34:00;;;;;;;;;;;;;;;;;;;;;
2023/11/26 08:39:51;;;;;;;;;;;;;;;;;;;;;
2023/11/26 08:45:54;;;;;;;12.60;5.20;;;;;;;-1.33;100.00;99996.13;223814;1266;139076;-82
2023/11/26 08:51:48;;;;;;;11.40;5.20;;;;;;;-1.19;100.00;99994.85;223712;1265;138976;-82
2023/11/26 08:57:39;;;;;;;11.00;4.00;;;;;;;-1.06;100.00;100000.75;223264;1265;139975;-81
2023/11/26 09:03:40;;;;;;;13.60;4.40;;;;;;;-0.94;100.00;100004.20;223721;1265;139665;-82
2023/11/26 09:09:40;;;;;;;8.30;3.30;;;;;;;-0.82;100.00;100009.88;223106;1266;140478;-81
2023/11/26 09:15:42;;;;;;;10.80;3.80;;;;;;;-0.71;100.00;100014.27;223746;1266;138928;-81
2023/11/26 09:21:48;;;;;;;9.50;3.90;;;;;;;-0.59;100.00;100015.63;223385;1266;365194;-81
2023/11/26 09:27:37;;;;;;;11.80;4.40;;;;;;;-0.48;100.00;100017.14;223299;1266;139957;-81
2023/11/26 09:33:38;;;;;;;9.80;3.80;;;;;;;-0.37;100.00;100023.73;223778;1266;139303;-82
2023/11/26 09:39:39;;;;;;;11.40;4.10;;;;;;;-0.32;100.00;100026.16;219200;1265;5380044;-82
2023/11/26 09:45:41;;;;;;;11.30;5.10;;;;;;;-0.23;100.00;100022.01;223781;1266;139946;-82
2023/11/26 09:51:42;;;;;;;10.10;4.30;;;;;;;-0.16;100.00;100025.84;223604;1265;391575;-82
2023/11/26 09:57:43;;;;;;;9.70;4.20;;;;;;;-0.12;100.00;100029.34;223252;1265;140270;-83
2023/11/26 10:03:44;;;;;;;9.10;4.20;;;;;;;-0.10;100.00;100024.96;223788;1265;139030;-83
2023/11/26 10:09:46;;;;;;;11.00;4.40;;;;;;;-0.05;100.00;100019.18;223233;1265;140011;-83
2023/11/26 10:15:48;;;;;;;14.80;5.50;;;;;;;-0.04;100.00;100017.89;223822;1265;139272;-83
2023/11/26 10:21:48;;;;;;;12.50;5.10;;;;;;;-0.04;100.00;100015.17;223604;1266;139280;-83
2023/11/26 10:27:49;;;;;;;;;;;;;;;;;;;;;
2023/11/26 10:33:56;;;;;;;9.90;4.20;;;;;;;-0.04;100.00;100022.92;223752;1266;139077;-83
2023/11/26 10:39:47;;;;;;;11.50;5.30;;;;;;;-0.06;100.00;100021.42;223242;1265;139803;-84
2023/11/26 10:45:49;;;;;;;12.00;5.30;;;;;;;-0.03;100.00;100021.88;223690;1265;139197;-84
2023/11/26 10:51:49;;;;;;;;;;;;;;;;;;;;;
2023/11/26 10:58:15;;;;;;;11.50;4.80;;;;;;;-0.00;100.00;100020.39;223208;1266;139921;-84
2023/11/26 11:04:01;;;;;;;10.90;4.50;;;;;;;0.00;100.00;100020.95;223568;1265;139486;-81
2023/11/26 11:10:01;;;;;;;10.10;4.60;;;;;;;0.03;100.00;100020.61;223216;1266;139297;-82
2023/11/26 11:15:57;;;;;;;10.30;4.80;;;;;;;0.05;100.00;100019.95;223763;1266;140018;-82
2023/11/26 11:22:04;;;;;;;10.50;4.60;;;;;;;0.07;100.00;100017.47;223775;1265;138829;-82
2023/11/26 11:28:05;;;;;;;12.20;5.20;;;;;;;0.09;100.00;100012.55;223222;1269;140086;-82
2023/11/26 11:40:22;;;;;;;10.80;4.50;;;;;;;0.06;100.00;100014.56;223230;1266;139732;-81
2023/11/26 11:46:27;;;;;;;13.00;5.10;;;;;;;0.09;100.00;100008.77;223208;1269;139720;-81
2023/11/26 11:52:31;;;;;;;14.50;5.90;;;;;;;0.08;100.00;100012.06;223502;1266;138842;-80
2023/11/26 11:58:31;;;;;;;;;;;;;;;;;;;;;
2023/11/26 12:04:23;;;;;;;;;;;;;;;;;;;;;
2023/11/26 12:10:25;;;;;;;13.40;5.20;;;;;;;0.07;100.00;100017.02;223058;1269;139891;-82
2023/11/26 12:16:22;;;;;;;9.50;4.30;;;;;;;0.06;100.00;100021.66;223183;1268;164355;-81
2023/11/26 12:22:05;;;;;;;;;;;;;;;;;;;;;
2023/11/26 12:28:08;;;;;;;10.50;4.20;;;;;;;0.04;100.00;100022.95;223215;1269;139788;-82
2023/11/26 12:34:01;;;;;;;13.10;4.30;;;;;;;0.03;100.00;100022.71;223672;1269;139469;-80
2023/11/26 12:39:55;;;;;;;11.50;4.30;;;;;;;0.03;100.00;100023.41;223065;1265;139757;-81
2023/11/26 12:45:59;;;;;;;12.90;4.70;;;;;;;0.04;100.00;100026.21;223699;1266;139686;-82
2023/11/26 12:51:59;;;;;;;12.20;5.50;;;;;;;-0.00;100.00;100019.47;223791;1269;138899;-80
2023/11/26 12:58:00;;;;;;;13.00;5.20;;;;;;;-0.02;100.00;100017.14;223225;1270;140485;-82
2023/11/26 13:04:04;;;;;;;13.10;4.80;;;;;;;-0.01;100.00;100012.46;223705;1266;139535;-81
2023/11/26 13:09:48;;;;;;;11.00;4.50;;;;;;;-0.04;100.00;100015.52;223175;1266;139789;-81
2023/11/26 13:15:42;;;;;;;12.20;5.60;;;;;;;-0.06;100.00;100017.02;223798;1269;139690;-81
2023/11/26 13:21:33;;;;;;;11.60;4.80;;;;;;;-0.10;100.00;100019.77;223516;1266;387814;-82
2023/11/26 13:27:33;;;;;;;14.40;5.70;;;;;;;-0.14;100.00;100017.20;223232;1265;140204;-81
2023/11/26 13:33:34;;;;;;;10.80;4.20;;;;;;;-0.19;100.00;100012.95;223801;1266;139952;-82
2023/11/26 13:39:36;;;;;;;14.30;5.90;;;;;;;-0.21;100.00;100009.14;223329;1267;140777;-82
2023/11/26 13:45:36;;;;;;;11.70;5.80;;;;;;;-0.21;100.00;100020.70;223811;1265;140423;-81
2023/11/26 13:51:28;;;;;;;;;;;;;;;;;;;;;
2023/11/26 13:57:18;;;;;;;17.60;7.20;;;;;;;-0.22;100.00;100033.27;223273;1265;139916;-82
2023/11/26 14:03:15;;;;;;;19.10;8.40;;;;;;;-0.23;100.00;100042.47;223671;1267;139680;-81
2023/11/26 14:09:17;;;;;;;18.00;8.50;;;;;;;-0.24;100.00;100041.45;223272;1266;140344;-82
2023/11/26 14:15:16;;;;;;;20.20;9.20;;;;;;;-0.25;100.00;100041.26;223804;1267;139852;-82
2023/11/26 14:21:15;;;;;;;14.00;5.50;;;;;;;-0.24;100.00;100028.61;223142;1266;139855;-83
2023/11/26 14:27:23;;;;;;;;;;;;;;;;;;;;;
2023/11/26 14:33:25;;;;;;;12.80;6.20;;;;;;;-0.30;100.00;100025.02;223798;1266;139875;-83
2023/11/26 14:39:17;;;;;;;17.00;7.10;;;;;;;-0.33;100.00;100033.38;223238;1266;140532;-83
2023/11/26 14:45:07;;;;;;;14.80;6.10;;;;;;;-0.35;100.00;100035.11;223766;1269;139623;-82
2023/11/26 14:50:59;;;;;;;12.90;5.50;;;;;;;-0.38;100.00;100036.23;223136;1265;140259;-82
2023/11/26 14:56:59;;;;;;;11.70;5.50;;;;;;;-0.39;100.00;100029.96;223077;1267;140024;-83
2023/11/26 15:02:54;;;;;;;;;;;;;;;;;;;;;
2023/11/26 15:08:59;;;;;;;17.90;8.30;;;;;;;-0.49;100.00;100039.64;223224;1267;140046;-82
2023/11/26 15:15:03;;;;;;;14.00;6.00;;;;;;;-0.52;100.00;100043.17;223695;1266;139536;-82
2023/11/26 15:20:54;;;;;;;;;;;;;;;;;;;;;
2023/11/26 15:26:47;;;;;;;;;;;;;;;;;;;;;
2023/11/26 15:32:26;;;;;;;;;;;;;;;;;;;;;
2023/11/26 15:38:27;;;;;;;16.70;7.00;;;;;;;-0.62;100.00;100052.56;223311;1267;139971;-82
2023/11/26 15:44:29;;;;;;;14.90;6.10;;;;;;;-0.64;100.00;100050.48;223799;1266;139084;-83
2023/11/26 15:50:30;;;;;;;16.50;5.80;;;;;;;-0.66;100.00;100058.55;223120;1266;140216;-83
2023/11/26 15:56:34;;;;;;;15.40;5.60;;;;;;;-0.67;100.00;100063.56;223153;1265;140202;-82
2023/11/26 16:02:21;;;;;;;;;;;;;;;;;;;;;
2023/11/26 16:14:15;;;;;;;18.10;6.50;;;;;;;-0.70;100.00;100064.29;223853;1265;139825;-80
2023/11/26 16:20:09;;;;;;;14.80;6.20;;;;;;;-0.70;100.00;100065.27;223261;1265;139869;-83
2023/11/26 16:26:10;;;;;;;14.80;6.40;;;;;;;-0.70;100.00;100064.56;223774;1265;139645;-83
2023/11/26 16:32:10;;;;;;;;;;;;;;;;;;;;;
2023/11/26 16:38:12;;;;;;;15.20;6.50;;;;;;;-0.72;100.00;100063.25;223196;1265;140257;-83
2023/11/26 16:44:13;;;;;;;13.80;6.50;;;;;;;-0.75;100.00;100062.52;223613;1265;139162;-83
2023/11/26 16:50:35;;;;;;;20.80;8.30;;;;;;;-0.76;100.00;100065.59;223154;1265;139977;-82
2023/11/26 16:56:20;;;;;;;19.40;8.30;;;;;;;-0.79;100.00;100064.63;223668;1265;139127;-82
2023/11/26 17:02:44;;;;;;;21.40;8.10;;;;;;;-0.82;100.00;100061.76;223856;1265;139205;-81
2023/11/26 17:08:02;;;;;;;19.70;8.70;;;;;;;-0.85;100.00;100065.23;223199;1265;139756;-82
2023/11/26 17:14:04;;;;;;;15.60;6.90;;;;;;;-0.86;100.00;100066.43;223903;1265;139191;-81
2023/11/26 17:20:07;;;;;;;15.90;6.70;;;;;;;-0.87;100.00;100073.99;223187;1265;139584;-82
2023/11/26 17:26:06;;;;;;;16.70;7.00;;;;;;;-0.88;100.00;100075.19;223759;1265;139644;-82
2023/11/26 17:32:08;;;;;;;18.20;7.10;;;;;;;-0.87;100.00;100064.81;223652;1265;249949;-82
2023/11/26 17:38:00;;;;;;;;;;;;;;;;;;;;;
2023/11/26 17:43:58;;;;;;;15.60;7.20;;;;;;;-0.87;100.00;100061.39;223839;1265;139350;-82
2023/11/26 17:50:01;;;;;;;17.90;7.90;;;;;;;-0.89;100.00;100064.35;223234;1265;139331;-82
2023/11/26 17:56:03;;;;;;;18.00;7.50;;;;;;;-0.90;100.00;100075.14;223806;1265;139700;-82
2023/11/26 18:08:07;;;;;;;18.30;8.50;;;;;;;-0.93;100.00;100070.20;223306;1265;140072;-81
2023/11/26 18:14:02;;;;;;;;;;;;;;;;;;;;;
2023/11/26 18:20:02;;;;;;;;;;;;;;;;;;;;;
2023/11/26 18:25:54;;;;;;;13.50;5.70;;;;;;;-1.00;100.00;100062.45;223708;1265;139286;-82
2023/11/26 18:31:56;;;;;;;14.60;6.30;;;;;;;-1.02;100.00;100052.11;223571;1266;242852;-82
2023/11/26 18:37:57;;;;;;;14.90;5.90;;;;;;;-1.05;100.00;100052.56;223166;1265;140347;-82
2023/11/26 18:43:58;;;;;;;12.50;6.00;;;;;;;-1.06;100.00;100046.40;223942;1265;139828;-82
2023/11/26 18:49:59;;;;;;;14.60;6.20;;;;;;;-1.09;100.00;100033.08;223273;1265;139825;-81
2023/11/26 18:56:00;;;;;;;17.20;7.00;;;;;;;-1.16;100.00;100031.27;223837;1265;139837;-82
2023/11/26 19:01:55;;;;;;;12.50;5.60;;;;;;;-1.20;100.00;100042.46;223621;1265;140676;-82
2023/11/26 19:07:57;;;;;;;12.70;6.10;;;;;;;-1.21;100.00;100034.85;223310;1265;140475;-80
2023/11/26 19:13:58;;;;;;;13.00;6.00;;;;;;;-1.22;100.00;100036.23;223808;1265;139157;-81
2023/11/26 19:19:59;;;;;;;16.50;7.60;;;;;;;-1.24;100.00;100034.86;223146;1265;140361;-81
2023/11/26 19:25:58;;;;;;;;;;;;;;;;;;;;;
2023/11/26 19:31:59;;;;;;;16.40;7.60;;;;;;;-1.29;100.00;100039.11;223773;1265;137999;-81
2023/11/26 19:44:10;;;;;;;;;;;;;;;;;;;;;
2023/11/26 19:56:02;;;;;;;14.70;7.00;;;;;;;-1.51;100.00;100016.02;223598;1265;140076;-81
2023/11/26 20:01:54;;;;;;;;;;;;;;;;;;;;;
2023/11/26 20:07:51;;;;;;;;;;;;;;;;;;;;;
2023/11/26 20:13:53;;;;;;;16.00;6.90;;;;;;;-1.70;100.00;100016.86;223668;1265;140235;-81
2023/11/26 20:19:54;;;;;;;15.00;6.40;;;;;;;-1.75;100.00;100013.85;223172;1265;140155;-81
2023/11/26 20:31:56;;;;;;;15.10;7.30;;;;;;;-1.93;100.00;100006.63;223735;1265;139861;-79
2023/11/26 20:37:57;;;;;;;16.70;6.90;;;;;;;-1.97;100.00;100009.09;222994;1265;140571;-79
2023/11/26 20:43:46;;;;;;;17.90;7.20;;;;;;;-2.03;100.00;100011.66;223642;1265;140145;-79
2023/11/26 20:49:49;;;;;;;17.20;7.60;;;;;;;-2.09;100.00;100008.01;223160;1265;140049;-79
2023/11/26 20:55:50;;;;;;;16.90;6.50;;;;;;;-2.17;100.00;100007.20;223797;1265;139755;-80
2023/11/26 21:01:51;;;;;;;19.60;6.90;;;;;;;-2.27;100.00;100000.42;223713;1265;223148;-81
2023/11/26 21:07:45;;;;;;;17.00;7.40;;;;;;;-2.31;100.00;99997.55;223268;1265;140328;-81
2023/11/26 21:13:35;;;;;;;17.40;7.30;;;;;;;-2.39;100.00;99990.45;223843;1265;139447;-80
2023/11/26 21:19:26;;;;;;;17.80;7.20;;;;;;;-2.46;100.00;99986.10;223066;1265;139874;-81
2023/11/26 21:25:28;;;;;;;18.80;7.70;;;;;;;-2.56;100.00;99985.55;223784;1265;139611;-80
2023/11/26 21:31:29;;;;;;;19.20;8.40;;;;;;;-2.63;100.00;99982.84;223383;1265;139144;-79
2023/11/26 21:37:20;;;;;;;20.00;8.60;;;;;;;-2.68;100.00;99978.30;223199;1265;140039;-80
2023/11/26 21:43:22;;;;;;;18.20;7.80;;;;;;;-2.71;100.00;99967.65;219595;1265;5418891;-80
2023/11/26 21:49:23;;;;;;;19.60;8.90;;;;;;;-2.78;100.00;99963.17;223239;1269;140316;-80
2023/11/26 21:55:24;;;;;;;18.20;8.90;;;;;;;-2.84;100.00;99974.07;223658;1265;139389;-80
2023/11/26 22:01:25;;;;;;;22.00;9.50;;;;;;;-2.88;100.00;99977.60;223219;1265;139007;-80
2023/11/26 22:07:24;;;;;;;22.30;9.20;;;;;;;-2.94;100.00;99975.02;223259;1265;140020;-80
2023/11/26 22:13:26;;;;;;;18.70;7.80;;;;;;;-3.02;100.00;99965.49;223676;1265;139568;-80
2023/11/26 22:19:26;;;;;;;19.90;7.70;;;;;;;-3.09;100.00;99956.55;223233;1265;139954;-80
2023/11/26 22:31:27;;;;;;;21.80;7.90;;;;;;;-3.22;100.00;99950.91;223431;1265;139697;-80
2023/11/26 22:43:26;;;;;;;17.30;6.80;;;;;;;-3.24;100.00;99946.54;223636;1265;139066;-80
2023/11/26 22:49:28;;;;;;;14.70;6.10;;;;;;;-3.19;100.00;99941.71;223149;1265;140218;-80
2023/11/26 22:55:29;;;;;;;13.60;6.20;;;;;;;-3.13;100.00;99943.10;223767;1265;139065;-80
2023/11/26 23:01:29;;;;;;;13.30;5.30;;;;;;;-3.07;100.00;99943.14;223534;1265;139658;-80
2023/11/26 23:07:30;;;;;;;12.40;5.50;;;;;;;-3.00;100.00;99943.38;223158;1265;139842;-80
2023/11/26 23:19:32;;;;;;;13.80;6.40;;;;;;;-2.84;100.00;99946.89;223137;1265;140070;-80
2023/11/26 23:25:34;;;;;;;17.50;6.60;;;;;;;-2.76;100.00;99946.54;223686;1265;139188;-80
2023/11/26 23:31:35;;;;;;;20.10;6.50;;;;;;;-2.67;100.00;99949.43;223563;1265;139152;-80
2023/11/26 23:37:36;;;;;;;15.90;6.50;;;;;;;-2.58;100.00;99943.14;223134;1265;139762;-81
2023/11/26 23:43:36;;;;;;;;;;;;;;;;;;;;;
2023/11/26 23:49:38;;;;;;;18.70;6.70;;;;;;;-2.40;100.00;99953.04;223049;1265;140873;-80
2023/11/26 23:55:37;;;;;;;;;;;;;;;;;;;;;
